sensor_id;sensor_type;location;lat;lon;timestamp;temperature;humidity
64997;SHT31;51545;51.568;6.998;2023-06-04T00:00:03;14.44;59.89
64997;SHT31;51545;51.568;6.998;2023-06-04T00:02:30;14.63;59.24
64997;SHT31;51545;51.568;6.998;2023-06-04T00:04:56;14.46;60.49
64997;SHT31;51545;51.568;6.998;2023-06-04T00:07:21;14.61;60.03
64997;SHT31;51545;51.568;6.998;2023-06-04T00:09:46;14.56;60.69
64997;SHT31;51545;51.568;6.998;2023-06-04T00:12:12;14.42;61.41
64997;SHT31;51545;51.568;6.998;2023-06-04T00:14:38;14.44;61.29
64997;SHT31;51545;51.568;6.998;2023-06-04T00:17:04;14.28;62.67
64997;SHT31;51545;51.568;6.998;2023-06-04T00:19:29;14.19;63.32
64997;SHT31;51545;51.568;6.998;2023-06-04T00:21:55;14.26;63.10
64997;SHT31;51545;51.568;6.998;2023-06-04T00:24:20;14.11;64.32
64997;SHT31;51545;51.568;6.998;2023-06-04T00:26:46;14.15;64.69
64997;SHT31;51545;51.568;6.998;2023-06-04T00:29:11;14.11;65.18
64997;SHT31;51545;51.568;6.998;2023-06-04T00:31:37;14.00;65.64
64997;SHT31;51545;51.568;6.998;2023-06-04T00:34:05;13.98;66.34
64997;SHT31;51545;51.568;6.998;2023-06-04T00:36:31;14.16;66.42
64997;SHT31;51545;51.568;6.998;2023-06-04T00:38:56;14.00;66.97
64997;SHT31;51545;51.568;6.998;2023-06-04T00:41:22;14.12;67.06
64997;SHT31;51545;51.568;6.998;2023-06-04T00:43:47;13.93;67.49
64997;SHT31;51545;51.568;6.998;2023-06-04T00:46:22;13.87;68.01
64997;SHT31;51545;51.568;6.998;2023-06-04T00:48:48;13.93;68.13
64997;SHT31;51545;51.568;6.998;2023-06-04T00:51:13;13.90;68.13
64997;SHT31;51545;51.568;6.998;2023-06-04T00:53:39;13.86;68.22
64997;SHT31;51545;51.568;6.998;2023-06-04T00:56:04;14.04;67.72
64997;SHT31;51545;51.568;6.998;2023-06-04T00:58:31;13.84;68.41
64997;SHT31;51545;51.568;6.998;2023-06-04T01:00:58;13.66;69.40
64997;SHT31;51545;51.568;6.998;2023-06-04T01:03:29;13.87;68.66
64997;SHT31;51545;51.568;6.998;2023-06-04T01:06:00;13.87;68.61
64997;SHT31;51545;51.568;6.998;2023-06-04T01:08:33;13.69;69.37
64997;SHT31;51545;51.568;6.998;2023-06-04T01:11:00;13.70;69.09
64997;SHT31;51545;51.568;6.998;2023-06-04T01:13:25;13.57;69.59
64997;SHT31;51545;51.568;6.998;2023-06-04T01:15:51;13.57;69.72
64997;SHT31;51545;51.568;6.998;2023-06-04T01:18:18;13.60;69.76
64997;SHT31;51545;51.568;6.998;2023-06-04T01:20:53;13.50;69.84
64997;SHT31;51545;51.568;6.998;2023-06-04T01:26:03;13.44;70.41
64997;SHT31;51545;51.568;6.998;2023-06-04T01:28:30;13.50;69.61
64997;SHT31;51545;51.568;6.998;2023-06-04T01:30:59;13.38;70.22
64997;SHT31;51545;51.568;6.998;2023-06-04T01:33:26;13.23;70.62
64997;SHT31;51545;51.568;6.998;2023-06-04T01:35:52;13.15;70.82
64997;SHT31;51545;51.568;6.998;2023-06-04T01:38:18;13.18;70.65
64997;SHT31;51545;51.568;6.998;2023-06-04T01:40:44;13.25;70.60
64997;SHT31;51545;51.568;6.998;2023-06-04T01:43:10;13.15;71.28
64997;SHT31;51545;51.568;6.998;2023-06-04T01:45:35;13.21;70.62
64997;SHT31;51545;51.568;6.998;2023-06-04T01:48:02;13.10;70.82
64997;SHT31;51545;51.568;6.998;2023-06-04T01:50:28;12.70;72.21
64997;SHT31;51545;51.568;6.998;2023-06-04T01:52:54;12.71;72.38
64997;SHT31;51545;51.568;6.998;2023-06-04T01:55:19;12.69;72.97
64997;SHT31;51545;51.568;6.998;2023-06-04T01:57:46;12.56;73.38
64997;SHT31;51545;51.568;6.998;2023-06-04T02:00:12;12.46;73.13
64997;SHT31;51545;51.568;6.998;2023-06-04T02:02:43;12.52;73.52
64997;SHT31;51545;51.568;6.998;2023-06-04T02:05:11;12.46;73.51
64997;SHT31;51545;51.568;6.998;2023-06-04T02:07:37;12.38;73.55
64997;SHT31;51545;51.568;6.998;2023-06-04T02:10:05;12.35;73.62
64997;SHT31;51545;51.568;6.998;2023-06-04T02:12:32;12.28;73.88
64997;SHT31;51545;51.568;6.998;2023-06-04T02:14:57;12.39;73.58
64997;SHT31;51545;51.568;6.998;2023-06-04T02:17:22;12.25;74.06
64997;SHT31;51545;51.568;6.998;2023-06-04T02:19:48;12.06;75.29
64997;SHT31;51545;51.568;6.998;2023-06-04T02:22:17;12.11;74.92
64997;SHT31;51545;51.568;6.998;2023-06-04T02:24:43;11.93;75.58
64997;SHT31;51545;51.568;6.998;2023-06-04T02:27:09;11.87;76.48
64997;SHT31;51545;51.568;6.998;2023-06-04T02:29:35;11.83;76.17
64997;SHT31;51545;51.568;6.998;2023-06-04T02:32:02;11.90;75.79
64997;SHT31;51545;51.568;6.998;2023-06-04T02:34:28;11.86;75.90
64997;SHT31;51545;51.568;6.998;2023-06-04T02:36:53;11.99;75.56
64997;SHT31;51545;51.568;6.998;2023-06-04T02:39:19;11.83;76.33
64997;SHT31;51545;51.568;6.998;2023-06-04T02:41:45;11.76;76.84
64997;SHT31;51545;51.568;6.998;2023-06-04T02:44:10;11.78;76.50
64997;SHT31;51545;51.568;6.998;2023-06-04T02:46:37;11.77;76.13
64997;SHT31;51545;51.568;6.998;2023-06-04T02:49:02;11.81;76.06
64997;SHT31;51545;51.568;6.998;2023-06-04T02:51:28;11.77;76.46
64997;SHT31;51545;51.568;6.998;2023-06-04T02:53:54;11.87;76.02
64997;SHT31;51545;51.568;6.998;2023-06-04T02:56:20;11.83;76.46
64997;SHT31;51545;51.568;6.998;2023-06-04T02:58:49;11.67;77.13
64997;SHT31;51545;51.568;6.998;2023-06-04T03:01:27;11.48;77.36
64997;SHT31;51545;51.568;6.998;2023-06-04T03:03:53;11.60;77.00
64997;SHT31;51545;51.568;6.998;2023-06-04T03:06:20;11.45;77.90
64997;SHT31;51545;51.568;6.998;2023-06-04T03:08:47;11.31;78.98
64997;SHT31;51545;51.568;6.998;2023-06-04T03:11:13;11.11;79.46
64997;SHT31;51545;51.568;6.998;2023-06-04T03:13:39;11.07;80.09
64997;SHT31;51545;51.568;6.998;2023-06-04T03:16:05;11.22;79.24
64997;SHT31;51545;51.568;6.998;2023-06-04T03:18:37;11.10;79.58
64997;SHT31;51545;51.568;6.998;2023-06-04T03:21:05;10.60;81.55
64997;SHT31;51545;51.568;6.998;2023-06-04T03:23:31;10.81;81.30
64997;SHT31;51545;51.568;6.998;2023-06-04T03:25:57;10.70;81.49
64997;SHT31;51545;51.568;6.998;2023-06-04T03:28:23;10.69;81.97
64997;SHT31;51545;51.568;6.998;2023-06-04T03:30:48;10.88;81.01
64997;SHT31;51545;51.568;6.998;2023-06-04T03:33:14;10.98;80.98
64997;SHT31;51545;51.568;6.998;2023-06-04T03:35:40;10.45;82.28
64997;SHT31;51545;51.568;6.998;2023-06-04T03:38:06;10.75;81.80
64997;SHT31;51545;51.568;6.998;2023-06-04T03:40:32;10.79;80.96
64997;SHT31;51545;51.568;6.998;2023-06-04T03:42:57;10.98;80.31
64997;SHT31;51545;51.568;6.998;2023-06-04T03:45:23;11.04;80.31
64997;SHT31;51545;51.568;6.998;2023-06-04T03:47:48;11.08;80.14
64997;SHT31;51545;51.568;6.998;2023-06-04T03:50:13;11.11;80.47
64997;SHT31;51545;51.568;6.998;2023-06-04T03:52:39;11.04;80.29
64997;SHT31;51545;51.568;6.998;2023-06-04T03:55:04;11.14;79.48
64997;SHT31;51545;51.568;6.998;2023-06-04T03:57:30;11.07;79.67
64997;SHT31;51545;51.568;6.998;2023-06-04T03:59:56;11.22;79.16
64997;SHT31;51545;51.568;6.998;2023-06-04T04:02:21;11.23;79.37
64997;SHT31;51545;51.568;6.998;2023-06-04T04:04:47;11.12;79.58
64997;SHT31;51545;51.568;6.998;2023-06-04T04:07:13;11.18;79.75
64997;SHT31;51545;51.568;6.998;2023-06-04T04:09:39;11.16;80.55
64997;SHT31;51545;51.568;6.998;2023-06-04T04:12:04;11.23;80.34
64997;SHT31;51545;51.568;6.998;2023-06-04T04:14:30;11.18;80.78
64997;SHT31;51545;51.568;6.998;2023-06-04T04:16:56;11.10;80.50
64997;SHT31;51545;51.568;6.998;2023-06-04T04:19:21;11.28;79.54
64997;SHT31;51545;51.568;6.998;2023-06-04T04:21:47;11.34;80.38
64997;SHT31;51545;51.568;6.998;2023-06-04T04:24:24;11.45;79.01
64997;SHT31;51545;51.568;6.998;2023-06-04T04:26:51;11.40;80.37
64997;SHT31;51545;51.568;6.998;2023-06-04T04:29:22;11.19;81.47
64997;SHT31;51545;51.568;6.998;2023-06-04T04:31:50;11.28;80.37
64997;SHT31;51545;51.568;6.998;2023-06-04T04:34:21;11.36;80.94
64997;SHT31;51545;51.568;6.998;2023-06-04T04:36:48;11.55;79.04
64997;SHT31;51545;51.568;6.998;2023-06-04T04:39:22;11.62;80.12
64997;SHT31;51545;51.568;6.998;2023-06-04T04:41:48;11.83;78.48
64997;SHT31;51545;51.568;6.998;2023-06-04T04:44:13;11.62;79.52
64997;SHT31;51545;51.568;6.998;2023-06-04T04:46:39;11.65;80.25
64997;SHT31;51545;51.568;6.998;2023-06-04T04:49:04;11.46;81.79
64997;SHT31;51545;51.568;6.998;2023-06-04T04:51:30;11.63;80.79
64997;SHT31;51545;51.568;6.998;2023-06-04T04:53:55;11.56;80.28
64997;SHT31;51545;51.568;6.998;2023-06-04T04:56:21;11.77;80.66
64997;SHT31;51545;51.568;6.998;2023-06-04T04:58:47;11.58;80.85
64997;SHT31;51545;51.568;6.998;2023-06-04T05:01:13;11.76;80.28
64997;SHT31;51545;51.568;6.998;2023-06-04T05:03:39;12.11;78.99
64997;SHT31;51545;51.568;6.998;2023-06-04T05:06:04;12.11;77.73
64997;SHT31;51545;51.568;6.998;2023-06-04T05:08:30;12.12;78.20
64997;SHT31;51545;51.568;6.998;2023-06-04T05:10:55;11.94;80.18
64997;SHT31;51545;51.568;6.998;2023-06-04T05:13:21;11.98;80.40
64997;SHT31;51545;51.568;6.998;2023-06-04T05:15:47;12.33;78.15
64997;SHT31;51545;51.568;6.998;2023-06-04T05:18:13;12.48;76.82
64997;SHT31;51545;51.568;6.998;2023-06-04T05:20:41;12.63;76.03
64997;SHT31;51545;51.568;6.998;2023-06-04T05:23:08;12.64;77.21
64997;SHT31;51545;51.568;6.998;2023-06-04T05:25:33;12.63;75.44
64997;SHT31;51545;51.568;6.998;2023-06-04T05:27:59;12.91;74.55
64997;SHT31;51545;51.568;6.998;2023-06-04T05:30:24;13.00;74.34
64997;SHT31;51545;51.568;6.998;2023-06-04T05:32:50;12.83;74.36
64997;SHT31;51545;51.568;6.998;2023-06-04T05:35:15;12.81;74.51
64997;SHT31;51545;51.568;6.998;2023-06-04T05:37:42;13.05;73.88
64997;SHT31;51545;51.568;6.998;2023-06-04T05:40:10;13.01;73.55
64997;SHT31;51545;51.568;6.998;2023-06-04T05:42:36;13.07;73.51
64997;SHT31;51545;51.568;6.998;2023-06-04T05:45:02;13.07;74.28
64997;SHT31;51545;51.568;6.998;2023-06-04T05:47:29;13.16;72.97
64997;SHT31;51545;51.568;6.998;2023-06-04T05:49:56;13.29;72.92
64997;SHT31;51545;51.568;6.998;2023-06-04T05:52:23;13.52;71.65
64997;SHT31;51545;51.568;6.998;2023-06-04T05:54:49;13.49;71.24
64997;SHT31;51545;51.568;6.998;2023-06-04T05:57:15;13.46;71.28
64997;SHT31;51545;51.568;6.998;2023-06-04T05:59:40;13.59;71.10
64997;SHT31;51545;51.568;6.998;2023-06-04T06:02:06;13.71;71.97
64997;SHT31;51545;51.568;6.998;2023-06-04T06:04:31;13.76;72.46
64997;SHT31;51545;51.568;6.998;2023-06-04T06:06:57;13.87;70.24
64997;SHT31;51545;51.568;6.998;2023-06-04T06:09:24;13.90;70.03
64997;SHT31;51545;51.568;6.998;2023-06-04T06:11:50;13.95;69.21
64997;SHT31;51545;51.568;6.998;2023-06-04T06:14:16;14.08;69.06
64997;SHT31;51545;51.568;6.998;2023-06-04T06:16:41;14.15;71.36
64997;SHT31;51545;51.568;6.998;2023-06-04T06:19:06;14.22;69.80
64997;SHT31;51545;51.568;6.998;2023-06-04T06:21:32;14.33;69.32
64997;SHT31;51545;51.568;6.998;2023-06-04T06:23:57;14.43;68.86
64997;SHT31;51545;51.568;6.998;2023-06-04T06:26:23;14.56;68.57
64997;SHT31;51545;51.568;6.998;2023-06-04T06:28:50;14.60;68.42
64997;SHT31;51545;51.568;6.998;2023-06-04T06:31:15;14.70;68.28
64997;SHT31;51545;51.568;6.998;2023-06-04T06:33:41;14.74;69.27
64997;SHT31;51545;51.568;6.998;2023-06-04T06:36:07;14.80;67.76
64997;SHT31;51545;51.568;6.998;2023-06-04T06:38:37;14.94;65.35
64997;SHT31;51545;51.568;6.998;2023-06-04T06:41:02;15.05;66.33
64997;SHT31;51545;51.568;6.998;2023-06-04T06:43:28;15.20;65.60
64997;SHT31;51545;51.568;6.998;2023-06-04T06:45:53;15.35;62.90
64997;SHT31;51545;51.568;6.998;2023-06-04T06:48:19;15.35;60.71
64997;SHT31;51545;51.568;6.998;2023-06-04T06:50:44;15.46;61.43
64997;SHT31;51545;51.568;6.998;2023-06-04T06:53:09;15.50;61.09
64997;SHT31;51545;51.568;6.998;2023-06-04T06:55:35;15.49;61.27
64997;SHT31;51545;51.568;6.998;2023-06-04T06:58:00;15.61;60.98
64997;SHT31;51545;51.568;6.998;2023-06-04T07:00:26;15.75;60.05
64997;SHT31;51545;51.568;6.998;2023-06-04T07:02:53;15.87;60.19
64997;SHT31;51545;51.568;6.998;2023-06-04T07:05:19;15.94;61.00
64997;SHT31;51545;51.568;6.998;2023-06-04T07:07:44;15.99;60.08
64997;SHT31;51545;51.568;6.998;2023-06-04T07:10:11;16.14;59.48
64997;SHT31;51545;51.568;6.998;2023-06-04T07:12:38;16.09;59.85
64997;SHT31;51545;51.568;6.998;2023-06-04T07:15:04;16.24;59.51
64997;SHT31;51545;51.568;6.998;2023-06-04T07:17:31;16.40;58.45
64997;SHT31;51545;51.568;6.998;2023-06-04T07:19:58;16.47;58.12
64997;SHT31;51545;51.568;6.998;2023-06-04T07:22:23;16.43;57.94
64997;SHT31;51545;51.568;6.998;2023-06-04T07:24:49;16.52;58.19
64997;SHT31;51545;51.568;6.998;2023-06-04T07:27:18;16.63;57.63
64997;SHT31;51545;51.568;6.998;2023-06-04T07:29:44;16.75;58.51
64997;SHT31;51545;51.568;6.998;2023-06-04T07:32:10;16.81;58.67
64997;SHT31;51545;51.568;6.998;2023-06-04T07:34:37;16.88;58.81
64997;SHT31;51545;51.568;6.998;2023-06-04T07:37:03;17.02;57.32
64997;SHT31;51545;51.568;6.998;2023-06-04T07:39:29;17.12;57.03
64997;SHT31;51545;51.568;6.998;2023-06-04T07:41:55;17.18;56.80
64997;SHT31;51545;51.568;6.998;2023-06-04T07:44:20;17.20;55.80
64997;SHT31;51545;51.568;6.998;2023-06-04T07:46:45;17.25;56.86
64997;SHT31;51545;51.568;6.998;2023-06-04T07:49:11;17.36;55.77
64997;SHT31;51545;51.568;6.998;2023-06-04T07:51:36;17.49;54.63
64997;SHT31;51545;51.568;6.998;2023-06-04T07:54:02;17.64;55.58
64997;SHT31;51545;51.568;6.998;2023-06-04T07:56:28;17.84;56.59
64997;SHT31;51545;51.568;6.998;2023-06-04T07:58:53;17.87;57.20
64997;SHT31;51545;51.568;6.998;2023-06-04T08:01:19;18.01;56.29
64997;SHT31;51545;51.568;6.998;2023-06-04T08:03:44;18.02;55.67
64997;SHT31;51545;51.568;6.998;2023-06-04T08:06:10;18.23;56.07
64997;SHT31;51545;51.568;6.998;2023-06-04T08:08:36;18.23;54.20
64997;SHT31;51545;51.568;6.998;2023-06-04T08:11:01;18.30;53.52
64997;SHT31;51545;51.568;6.998;2023-06-04T08:13:27;18.37;54.13
64997;SHT31;51545;51.568;6.998;2023-06-04T08:15:53;18.50;53.52
64997;SHT31;51545;51.568;6.998;2023-06-04T08:18:19;18.54;53.43
64997;SHT31;51545;51.568;6.998;2023-06-04T08:20:44;18.68;52.51
64997;SHT31;51545;51.568;6.998;2023-06-04T08:23:10;18.70;52.78
64997;SHT31;51545;51.568;6.998;2023-06-04T08:25:35;18.94;53.50
64997;SHT31;51545;51.568;6.998;2023-06-04T08:28:01;18.87;52.21
64997;SHT31;51545;51.568;6.998;2023-06-04T08:30:26;19.12;53.78
64997;SHT31;51545;51.568;6.998;2023-06-04T08:32:52;19.27;53.01
64997;SHT31;51545;51.568;6.998;2023-06-04T08:35:18;19.20;52.83
64997;SHT31;51545;51.568;6.998;2023-06-04T08:37:44;19.60;53.61
64997;SHT31;51545;51.568;6.998;2023-06-04T08:40:10;19.60;51.19
64997;SHT31;51545;51.568;6.998;2023-06-04T08:42:43;19.63;51.64
64997;SHT31;51545;51.568;6.998;2023-06-04T08:45:13;19.72;50.23
64997;SHT31;51545;51.568;6.998;2023-06-04T08:47:42;19.67;49.86
64997;SHT31;51545;51.568;6.998;2023-06-04T08:50:18;19.92;51.28
64997;SHT31;51545;51.568;6.998;2023-06-04T08:52:49;20.01;50.41
64997;SHT31;51545;51.568;6.998;2023-06-04T08:55:18;20.06;51.09
64997;SHT31;51545;51.568;6.998;2023-06-04T08:57:44;20.15;49.77
64997;SHT31;51545;51.568;6.998;2023-06-04T09:00:10;20.29;48.93
64997;SHT31;51545;51.568;6.998;2023-06-04T09:02:37;20.39;48.93
64997;SHT31;51545;51.568;6.998;2023-06-04T09:05:04;20.48;48.37
64997;SHT31;51545;51.568;6.998;2023-06-04T09:07:32;20.57;48.51
64997;SHT31;51545;51.568;6.998;2023-06-04T09:10:01;20.43;44.42
64997;SHT31;51545;51.568;6.998;2023-06-04T09:12:29;20.71;46.63
64997;SHT31;51545;51.568;6.998;2023-06-04T09:14:55;20.81;47.04
64997;SHT31;51545;51.568;6.998;2023-06-04T09:17:21;20.87;45.26
64997;SHT31;51545;51.568;6.998;2023-06-04T09:19:48;20.88;45.28
64997;SHT31;51545;51.568;6.998;2023-06-04T09:22:18;21.26;45.26
64997;SHT31;51545;51.568;6.998;2023-06-04T09:24:44;21.32;45.04
64997;SHT31;51545;51.568;6.998;2023-06-04T09:27:12;21.19;43.50
64997;SHT31;51545;51.568;6.998;2023-06-04T09:29:40;21.26;44.77
64997;SHT31;51545;51.568;6.998;2023-06-04T09:32:06;21.51;44.19
64997;SHT31;51545;51.568;6.998;2023-06-04T09:34:31;21.43;43.47
64997;SHT31;51545;51.568;6.998;2023-06-04T09:36:57;21.44;42.79
64997;SHT31;51545;51.568;6.998;2023-06-04T09:39:23;21.72;43.79
64997;SHT31;51545;51.568;6.998;2023-06-04T09:42:01;21.81;42.59
64997;SHT31;51545;51.568;6.998;2023-06-04T09:44:31;21.84;41.89
64997;SHT31;51545;51.568;6.998;2023-06-04T09:47:08;21.87;40.50
64997;SHT31;51545;51.568;6.998;2023-06-04T09:49:46;22.06;39.08
64997;SHT31;51545;51.568;6.998;2023-06-04T09:52:12;22.05;42.97
64997;SHT31;51545;51.568;6.998;2023-06-04T09:54:42;22.41;42.38
64997;SHT31;51545;51.568;6.998;2023-06-04T09:57:17;22.63;40.34
64997;SHT31;51545;51.568;6.998;2023-06-04T09:59:44;22.39;39.95
64997;SHT31;51545;51.568;6.998;2023-06-04T10:02:13;22.63;40.47
64997;SHT31;51545;51.568;6.998;2023-06-04T10:04:44;22.41;41.86
64997;SHT31;51545;51.568;6.998;2023-06-04T10:07:14;22.70;42.90
64997;SHT31;51545;51.568;6.998;2023-06-04T10:09:42;22.67;39.86
64997;SHT31;51545;51.568;6.998;2023-06-04T10:12:12;22.71;40.19
64997;SHT31;51545;51.568;6.998;2023-06-04T10:15:02;22.94;41.13
64997;SHT31;51545;51.568;6.998;2023-06-04T10:17:35;22.77;40.03
64997;SHT31;51545;51.568;6.998;2023-06-04T10:20:01;23.37;39.39
64997;SHT31;51545;51.568;6.998;2023-06-04T10:22:30;23.65;40.62
64997;SHT31;51545;51.568;6.998;2023-06-04T10:24:57;23.44;41.39
64997;SHT31;51545;51.568;6.998;2023-06-04T10:27:23;23.46;39.69
64997;SHT31;51545;51.568;6.998;2023-06-04T10:29:49;23.23;40.09
64997;SHT31;51545;51.568;6.998;2023-06-04T10:32:15;23.74;40.84
64997;SHT31;51545;51.568;6.998;2023-06-04T10:34:41;24.35;39.69
64997;SHT31;51545;51.568;6.998;2023-06-04T10:37:17;24.27;39.85
64997;SHT31;51545;51.568;6.998;2023-06-04T10:39:49;24.63;39.40
64997;SHT31;51545;51.568;6.998;2023-06-04T10:42:19;24.56;38.85
64997;SHT31;51545;51.568;6.998;2023-06-04T10:44:53;24.54;38.76
64997;SHT31;51545;51.568;6.998;2023-06-04T10:47:24;25.53;38.53
64997;SHT31;51545;51.568;6.998;2023-06-04T10:49:50;25.75;36.62
64997;SHT31;51545;51.568;6.998;2023-06-04T10:52:17;25.97;34.89
64997;SHT31;51545;51.568;6.998;2023-06-04T10:54:44;25.12;36.40
64997;SHT31;51545;51.568;6.998;2023-06-04T10:57:11;24.91;36.35
64997;SHT31;51545;51.568;6.998;2023-06-04T10:59:37;25.26;37.08
64997;SHT31;51545;51.568;6.998;2023-06-04T11:02:07;25.29;37.57
64997;SHT31;51545;51.568;6.998;2023-06-04T11:04:33;25.42;36.98
64997;SHT31;51545;51.568;6.998;2023-06-04T11:07:02;25.44;37.55
64997;SHT31;51545;51.568;6.998;2023-06-04T11:09:38;25.74;35.32
64997;SHT31;51545;51.568;6.998;2023-06-04T11:12:13;25.57;36.97
64997;SHT31;51545;51.568;6.998;2023-06-04T11:14:38;25.90;35.22
64997;SHT31;51545;51.568;6.998;2023-06-04T11:17:11;25.20;35.80
64997;SHT31;51545;51.568;6.998;2023-06-04T11:19:38;25.57;36.92
64997;SHT31;51545;51.568;6.998;2023-06-04T11:22:04;25.90;34.68
64997;SHT31;51545;51.568;6.998;2023-06-04T11:24:30;26.19;35.40
64997;SHT31;51545;51.568;6.998;2023-06-04T11:26:57;26.01;34.47
64997;SHT31;51545;51.568;6.998;2023-06-04T11:29:25;26.22;35.82
64997;SHT31;51545;51.568;6.998;2023-06-04T11:31:50;26.39;34.86
64997;SHT31;51545;51.568;6.998;2023-06-04T11:34:25;26.60;36.66
64997;SHT31;51545;51.568;6.998;2023-06-04T11:36:52;27.16;34.74
64997;SHT31;51545;51.568;6.998;2023-06-04T11:39:19;26.81;33.99
64997;SHT31;51545;51.568;6.998;2023-06-04T11:41:45;26.39;33.81
64997;SHT31;51545;51.568;6.998;2023-06-04T11:44:11;26.99;33.34
64997;SHT31;51545;51.568;6.998;2023-06-04T11:46:43;26.73;32.01
64997;SHT31;51545;51.568;6.998;2023-06-04T11:49:14;26.09;33.00
64997;SHT31;51545;51.568;6.998;2023-06-04T11:51:50;26.45;33.04
64997;SHT31;51545;51.568;6.998;2023-06-04T11:54:18;27.12;32.94
64997;SHT31;51545;51.568;6.998;2023-06-04T11:56:45;27.25;32.94
64997;SHT31;51545;51.568;6.998;2023-06-04T11:59:13;26.61;33.83
64997;SHT31;51545;51.568;6.998;2023-06-04T12:01:40;26.86;34.50
64997;SHT31;51545;51.568;6.998;2023-06-04T12:04:16;26.33;33.02
64997;SHT31;51545;51.568;6.998;2023-06-04T12:09:21;25.66;35.90
64997;SHT31;51545;51.568;6.998;2023-06-04T12:11:47;26.24;34.23
64997;SHT31;51545;51.568;6.998;2023-06-04T12:14:15;26.02;36.14
64997;SHT31;51545;51.568;6.998;2023-06-04T12:16:54;26.05;35.89
64997;SHT31;51545;51.568;6.998;2023-06-04T12:19:27;26.15;36.05
64997;SHT31;51545;51.568;6.998;2023-06-04T12:22:03;25.42;34.42
64997;SHT31;51545;51.568;6.998;2023-06-04T12:24:30;25.40;35.24
64997;SHT31;51545;51.568;6.998;2023-06-04T12:27:03;25.78;35.42
64997;SHT31;51545;51.568;6.998;2023-06-04T12:29:33;25.92;35.37
64997;SHT31;51545;51.568;6.998;2023-06-04T12:32:10;25.98;36.93
64997;SHT31;51545;51.568;6.998;2023-06-04T12:34:39;25.69;35.06
64997;SHT31;51545;51.568;6.998;2023-06-04T12:37:05;25.78;37.44
64997;SHT31;51545;51.568;6.998;2023-06-04T12:39:35;25.43;36.30
64997;SHT31;51545;51.568;6.998;2023-06-04T12:42:07;25.75;36.43
64997;SHT31;51545;51.568;6.998;2023-06-04T12:44:36;25.71;34.23
64997;SHT31;51545;51.568;6.998;2023-06-04T12:47:04;25.98;36.13
64997;SHT31;51545;51.568;6.998;2023-06-04T12:49:30;25.73;35.96
64997;SHT31;51545;51.568;6.998;2023-06-04T12:51:56;26.16;36.70
64997;SHT31;51545;51.568;6.998;2023-06-04T12:54:21;25.64;35.56
64997;SHT31;51545;51.568;6.998;2023-06-04T12:56:47;25.07;34.47
64997;SHT31;51545;51.568;6.998;2023-06-04T12:59:13;25.78;35.64
64997;SHT31;51545;51.568;6.998;2023-06-04T13:01:38;26.09;37.59
64997;SHT31;51545;51.568;6.998;2023-06-04T13:04:04;26.06;35.74
64997;SHT31;51545;51.568;6.998;2023-06-04T13:06:30;25.67;35.87
64997;SHT31;51545;51.568;6.998;2023-06-04T13:08:56;26.37;34.88
64997;SHT31;51545;51.568;6.998;2023-06-04T13:11:21;26.13;34.02
64997;SHT31;51545;51.568;6.998;2023-06-04T13:13:47;26.28;32.57
64997;SHT31;51545;51.568;6.998;2023-06-04T13:16:13;25.98;34.37
64997;SHT31;51545;51.568;6.998;2023-06-04T13:18:39;25.75;32.29
64997;SHT31;51545;51.568;6.998;2023-06-04T13:21:04;26.15;35.17
64997;SHT31;51545;51.568;6.998;2023-06-04T13:23:30;25.77;33.92
64997;SHT31;51545;51.568;6.998;2023-06-04T13:25:55;26.43;34.25
64997;SHT31;51545;51.568;6.998;2023-06-04T13:28:21;26.83;33.39
64997;SHT31;51545;51.568;6.998;2023-06-04T13:30:46;26.80;34.29
64997;SHT31;51545;51.568;6.998;2023-06-04T13:33:12;26.25;35.70
64997;SHT31;51545;51.568;6.998;2023-06-04T13:35:37;26.28;34.90
64997;SHT31;51545;51.568;6.998;2023-06-04T13:38:05;26.56;34.62
64997;SHT31;51545;51.568;6.998;2023-06-04T13:40:32;26.37;34.79
64997;SHT31;51545;51.568;6.998;2023-06-04T13:42:59;26.77;35.26
64997;SHT31;51545;51.568;6.998;2023-06-04T13:45:24;27.32;33.60
64997;SHT31;51545;51.568;6.998;2023-06-04T13:47:50;26.83;31.54
64997;SHT31;51545;51.568;6.998;2023-06-04T13:50:15;26.32;34.52
64997;SHT31;51545;51.568;6.998;2023-06-04T13:52:42;26.52;33.65
64997;SHT31;51545;51.568;6.998;2023-06-04T13:55:08;26.57;34.83
64997;SHT31;51545;51.568;6.998;2023-06-04T13:57:34;25.88;34.35
64997;SHT31;51545;51.568;6.998;2023-06-04T13:59:59;26.09;33.78
64997;SHT31;51545;51.568;6.998;2023-06-04T14:02:25;26.40;35.69
64997;SHT31;51545;51.568;6.998;2023-06-04T14:04:52;26.43;32.18
64997;SHT31;51545;51.568;6.998;2023-06-04T14:07:18;26.88;33.70
64997;SHT31;51545;51.568;6.998;2023-06-04T14:09:44;26.63;33.83
64997;SHT31;51545;51.568;6.998;2023-06-04T14:12:09;26.21;34.20
64997;SHT31;51545;51.568;6.998;2023-06-04T14:14:35;26.21;33.73
64997;SHT31;51545;51.568;6.998;2023-06-04T14:17:03;26.76;32.57
64997;SHT31;51545;51.568;6.998;2023-06-04T14:19:30;27.45;33.92
64997;SHT31;51545;51.568;6.998;2023-06-04T14:21:55;27.71;34.13
64997;SHT31;51545;51.568;6.998;2023-06-04T14:24:21;27.14;32.55
64997;SHT31;51545;51.568;6.998;2023-06-04T14:26:47;27.02;34.54
64997;SHT31;51545;51.568;6.998;2023-06-04T14:29:12;27.11;33.98
64997;SHT31;51545;51.568;6.998;2023-06-04T14:31:38;27.88;31.91
64997;SHT31;51545;51.568;6.998;2023-06-04T14:34:04;27.63;32.95
64997;SHT31;51545;51.568;6.998;2023-06-04T14:36:32;27.82;32.15
64997;SHT31;51545;51.568;6.998;2023-06-04T14:38:57;27.38;32.24
64997;SHT31;51545;51.568;6.998;2023-06-04T14:41:23;27.32;32.46
64997;SHT31;51545;51.568;6.998;2023-06-04T14:43:48;27.52;33.29
64997;SHT31;51545;51.568;6.998;2023-06-04T14:46:14;27.41;33.78
64997;SHT31;51545;51.568;6.998;2023-06-04T14:48:41;27.91;32.48
64997;SHT31;51545;51.568;6.998;2023-06-04T14:51:07;27.66;32.53
64997;SHT31;51545;51.568;6.998;2023-06-04T14:53:32;27.59;34.06
64997;SHT31;51545;51.568;6.998;2023-06-04T14:55:58;26.97;32.72
64997;SHT31;51545;51.568;6.998;2023-06-04T14:58:23;26.87;34.23
64997;SHT31;51545;51.568;6.998;2023-06-04T15:00:48;26.99;33.71
64997;SHT31;51545;51.568;6.998;2023-06-04T15:03:14;26.80;32.94
64997;SHT31;51545;51.568;6.998;2023-06-04T15:05:39;27.46;31.46
64997;SHT31;51545;51.568;6.998;2023-06-04T15:08:05;27.18;32.07
64997;SHT31;51545;51.568;6.998;2023-06-04T15:10:30;27.12;31.75
64997;SHT31;51545;51.568;6.998;2023-06-04T15:12:58;27.39;33.71
64997;SHT31;51545;51.568;6.998;2023-06-04T15:15:25;27.64;30.81
64997;SHT31;51545;51.568;6.998;2023-06-04T15:17:51;27.71;33.79
64997;SHT31;51545;51.568;6.998;2023-06-04T15:20:16;28.16;34.01
64997;SHT31;51545;51.568;6.998;2023-06-04T15:22:42;27.70;32.09
64997;SHT31;51545;51.568;6.998;2023-06-04T15:25:07;27.69;31.52
64997;SHT31;51545;51.568;6.998;2023-06-04T15:27:33;26.83;32.83
64997;SHT31;51545;51.568;6.998;2023-06-04T15:29:59;27.30;34.27
64997;SHT31;51545;51.568;6.998;2023-06-04T15:32:24;27.11;32.84